createdAt,value
2019-02-28T05:03:00.136Z,5.27
2019-02-28T05:13:01.425Z,8.73
2019-02-28T05:23:02.945Z,9.37
2019-02-28T05:33:06.699Z,8.57
2019-02-28T05:43:05.350Z,10.07
2019-02-28T05:53:09.348Z,11.57
2019-02-28T06:03:08.045Z,11.77
2019-02-28T06:13:09.440Z,7.63
2019-02-28T06:23:10.726Z,10.70
2019-02-28T06:33:12.190Z,8.07
2019-02-28T06:43:14.204Z,9.83
2019-02-28T06:53:14.908Z,8.43
2019-02-28T07:03:16.195Z,8.07
2019-02-28T07:13:18.142Z,9.17
2019-02-28T07:23:26.769Z,11.20
2019-02-28T07:33:27.409Z,5.27
2019-02-28T07:43:29.453Z,7.77
2019-02-28T07:53:30.739Z,5.47
2019-02-28T08:03:32.047Z,7.67
2019-02-28T08:13:34.593Z,6.07
2019-02-28T08:33:48.212Z,13.13
2019-02-28T08:43:47.812Z,9.23
2019-02-28T08:53:51.296Z,8.07
2019-02-28T09:03:50.306Z,6.07
2019-02-28T09:13:51.607Z,11.60
2019-02-28T09:23:53.661Z,8.93
2019-02-28T09:33:55.494Z,7.85
2019-02-28T09:44:00.934Z,12.25
2019-02-28T09:54:02.979Z,10.95
2019-02-28T10:04:04.237Z,9.32
2019-02-28T10:14:05.511Z,4.15
2019-02-28T10:24:06.806Z,10.57
2019-02-28T10:34:08.101Z,12.70
2019-02-28T10:44:09.388Z,11.18
2019-02-28T10:54:11.226Z,11.43
2019-02-28T11:04:11.953Z,12.63
2019-02-28T11:14:14.342Z,9.70
2019-02-28T11:24:16.400Z,8.23
2019-02-28T11:34:18.809Z,10.03
2019-02-28T11:44:19.055Z,9.93
2019-02-28T11:54:21.096Z,8.23
2019-02-28T12:04:22.484Z,7.47
2019-02-28T12:14:26.348Z,4.70
2019-02-28T12:24:25.125Z,2.00
2019-02-28T12:34:28.753Z,1.70
2019-02-28T12:44:27.690Z,3.70
2019-02-28T12:54:30.417Z,10.57
2019-02-28T13:04:35.861Z,1.83
2019-02-28T13:14:36.853Z,2.00
2019-02-28T13:24:36.390Z,1.43
2019-02-28T13:34:38.568Z,1.60
2019-02-28T13:44:39.830Z,1.30
2019-02-28T13:54:42.157Z,1.73
2019-02-28T14:04:42.628Z,1.67
2019-02-28T14:14:44.659Z,2.33
2019-02-28T14:24:45.932Z,1.77
2019-02-28T14:34:48.203Z,2.33
2019-02-28T14:44:49.501Z,1.50
2019-02-28T15:04:57.978Z,2.20
2019-02-28T15:15:00.032Z,1.60
2019-02-28T15:25:01.331Z,1.90
2019-02-28T15:35:02.584Z,2.53
2019-02-28T15:45:05.166Z,3.23
2019-02-28T15:55:06.026Z,2.67
2019-02-28T16:05:09.353Z,1.87
2019-02-28T16:15:12.760Z,2.43
2019-02-28T16:25:14.685Z,5.53
2019-02-28T16:35:16.987Z,2.77
2019-02-28T16:45:19.267Z,3.43
2019-02-28T16:55:22.730Z,3.33
2019-02-28T17:05:28.126Z,4.23
2019-02-28T17:15:26.706Z,4.20
2019-02-28T17:25:28.099Z,3.10
2019-02-28T17:35:30.660Z,5.87
2019-02-28T17:45:30.888Z,10.87
2019-02-28T17:55:32.199Z,9.73
2019-02-28T18:05:36.533Z,7.43
2019-02-28T18:15:35.691Z,12.40
2019-02-28T18:25:38.104Z,13.60
2019-02-28T18:35:39.518Z,14.43
2019-02-28T18:45:40.772Z,11.30
2019-02-28T18:55:42.062Z,11.30
2019-02-28T19:05:47.089Z,6.67
2019-02-28T19:15:48.393Z,10.43
2019-02-28T19:25:49.788Z,10.60
2019-02-28T19:35:51.086Z,9.57
2019-02-28T19:45:52.394Z,6.27
2019-02-28T19:55:54.482Z,6.70
2019-02-28T20:05:55.788Z,9.33
2019-02-28T20:15:57.081Z,10.40
2019-02-28T20:25:59.164Z,7.90
2019-02-28T20:36:00.446Z,7.33
2019-02-28T20:46:01.792Z,12.07
2019-02-28T20:56:03.076Z,6.80
2019-02-28T21:06:04.356Z,9.20
2019-02-28T21:16:05.608Z,7.20
2019-02-28T21:26:06.876Z,8.10
2019-02-28T21:36:08.154Z,7.73
2019-02-28T21:46:09.429Z,9.47
2019-02-28T21:56:10.693Z,9.33
2019-02-28T22:06:11.958Z,8.33
2019-02-28T22:16:13.232Z,7.97
2019-02-28T22:26:14.512Z,6.17
2019-02-28T22:36:16.546Z,10.13
2019-02-28T22:46:17.822Z,9.33
2019-02-28T22:56:19.084Z,14.53
2019-02-28T23:06:21.113Z,15.43
2019-02-28T23:26:32.280Z,13.20
2019-02-28T23:36:34.332Z,11.80
2019-02-28T23:46:35.613Z,6.97
2019-02-28T23:56:36.897Z,8.07
